Time;durP1;ratioP1;P1;durP2;ratioP2;P2;SDS_P1;SDS_P2;PMS_P1;PMS_P2;Temp;Humidity;BMP_temperature;BMP_pressure;BME280_temperature;BME280_humidity;BME280_pressure;Samples;Min_cycle;Max_cycle;Signal;HPM_P1;HPM_P2
2022/10/09 00:00:43;;;;;;;14.73;9.00;;;10.00;99.90;;;;;;5061566;28;20226;-68
2022/10/09 00:03:09;;;;;;;8.40;7.43;;;10.00;99.90;;;;;;5053241;28;20439;-68
2022/10/09 00:05:35;;;;;;;12.63;9.20;;;10.00;99.90;;;;;;5055564;28;20432;-68
2022/10/09 00:08:00;;;;;;;9.23;8.43;;;9.90;99.90;;;;;;5055291;28;20579;-68
2022/10/09 00:10:26;;;;;;;8.13;7.13;;;9.90;99.90;;;;;;5046724;28;20181;-68
2022/10/09 00:12:51;;;;;;;11.53;7.43;;;9.90;99.90;;;;;;5043701;28;20197;-68
2022/10/09 00:15:17;;;;;;;9.00;8.10;;;9.80;99.90;;;;;;5053480;28;20236;-68
2022/10/09 00:17:43;;;;;;;10.80;7.50;;;9.80;99.90;;;;;;5047750;28;20213;-68
2022/10/09 00:20:09;;;;;;;11.73;8.17;;;9.70;99.90;;;;;;5060887;28;20222;-68
2022/10/09 00:22:34;;;;;;;8.67;7.70;;;9.70;99.90;;;;;;5045114;28;20228;-68
2022/10/09 00:25:00;;;;;;;7.90;7.03;;;9.60;99.90;;;;;;5043562;28;20846;-68
2022/10/09 00:27:25;;;;;;;7.37;6.67;;;9.60;99.90;;;;;;5049995;28;20197;-68
2022/10/09 00:29:51;;;;;;;11.67;9.00;;;9.60;99.90;;;;;;5050219;28;20185;-68
2022/10/09 00:32:17;;;;;;;8.40;7.20;;;9.50;99.90;;;;;;5051469;28;20189;-68
2022/10/09 00:34:43;;;;;;;11.87;8.20;;;9.50;99.90;;;;;;5030376;28;20231;-68
2022/10/09 00:37:09;;;;;;;10.00;6.60;;;9.50;99.90;;;;;;5038371;28;20476;-68
2022/10/09 00:39:35;;;;;;;8.30;7.43;;;9.50;99.90;;;;;;5036962;28;20205;-68
2022/10/09 00:42:01;;;;;;;8.47;7.67;;;9.40;99.90;;;;;;5046510;28;20444;-68
2022/10/09 00:44:47;;;;;;;10.00;8.80;;;9.40;99.90;;;;;;5046483;28;20875;-68
2022/10/09 00:47:19;;;;;;;9.67;7.37;;;9.50;99.90;;;;;;5044842;28;20559;-68
2022/10/09 00:49:46;;;;;;;9.10;7.47;;;9.40;99.90;;;;;;5046464;28;22134;-68
2022/10/09 00:52:12;;;;;;;8.27;7.47;;;9.40;99.90;;;;;;5048643;28;20468;-68
2022/10/09 00:54:39;;;;;;;10.70;7.40;;;9.40;99.90;;;;;;5048594;28;20482;-68
2022/10/09 00:57:06;;;;;;;7.93;6.67;;;9.40;99.90;;;;;;5042605;28;20221;-68
2022/10/09 00:59:32;;;;;;;11.97;7.30;;;9.40;99.90;;;;;;5049832;28;20440;-68
2022/10/09 01:01:57;;;;;;;7.70;6.80;;;9.40;99.90;;;;;;5047237;28;20440;-68
2022/10/09 01:04:23;;;;;;;7.93;6.70;;;9.30;99.90;;;;;;5049567;28;20431;-68
2022/10/09 01:06:51;;;;;;;8.67;6.60;;;9.30;99.90;;;;;;5039932;28;20202;-68
2022/10/09 01:09:22;;;;;;;9.37;6.70;;;9.20;99.90;;;;;;5047676;28;20251;-68
2022/10/09 01:12:01;;;;;;;7.77;7.00;;;9.10;99.90;;;;;;5057278;28;20578;-68
2022/10/09 01:14:31;;;;;;;11.30;7.03;;;9.10;99.90;;;;;;5048742;28;20439;-68
2022/10/09 01:17:02;;;;;;;7.90;7.20;;;9.10;99.90;;;;;;5047753;28;20562;-68
2022/10/09 01:19:44;;;;;;;10.67;7.57;;;9.00;99.90;;;;;;5041888;28;20436;-68
2022/10/09 01:22:25;;;;;;;7.60;6.90;;;9.00;99.90;;;;;;5039312;28;20516;-68
2022/10/09 01:25:18;;;;;;;8.90;6.70;;;9.10;99.90;;;;;;5042211;28;20443;-68
2022/10/09 01:27:44;;;;;;;7.13;6.43;;;9.00;99.90;;;;;;5047945;28;20984;-68
2022/10/09 01:30:11;;;;;;;8.37;7.47;;;9.00;99.90;;;;;;5050387;28;20523;-68
2022/10/09 01:32:41;;;;;;;7.40;6.60;;;8.90;99.90;;;;;;5048025;28;20272;-68
2022/10/09 01:35:09;;;;;;;7.50;6.80;;;8.90;99.90;;;;;;5041632;28;20791;-68
2022/10/09 01:37:37;;;;;;;9.80;7.90;;;8.90;99.90;;;;;;5047307;28;20809;-68
2022/10/09 01:40:04;;;;;;;8.70;6.63;;;8.90;99.90;;;;;;5040145;28;20520;-68
2022/10/09 01:42:31;;;;;;;8.20;7.57;;;8.90;99.90;;;;;;5041550;28;20436;-68
2022/10/09 01:44:57;;;;;;;11.63;7.13;;;8.90;99.90;;;;;;5048415;28;20467;-68
2022/10/09 01:47:23;;;;;;;9.30;6.97;;;8.90;99.90;;;;;;5035516;28;20490;-68
2022/10/09 01:50:06;;;;;;;14.17;7.87;;;8.90;99.90;;;;;;5043734;28;20200;-68
2022/10/09 01:52:41;;;;;;;10.83;7.67;;;8.80;99.90;;;;;;5038658;28;20450;-68
2022/10/09 01:55:34;;;;;;;10.03;6.97;;;8.90;99.90;;;;;;5046927;28;20489;-68
2022/10/09 01:58:10;;;;;;;7.73;6.63;;;8.80;99.90;;;;;;5048468;28;20479;-67
2022/10/09 02:00:41;;;;;;;7.87;7.10;;;8.80;99.90;;;;;;5044335;28;20450;-67
2022/10/09 02:03:10;;;;;;;8.13;6.60;;;8.70;99.90;;;;;;5047743;28;20443;-67
2022/10/09 02:05:37;;;;;;;8.97;6.50;;;8.70;99.90;;;;;;5041944;28;20893;-67
2022/10/09 02:08:03;;;;;;;10.10;7.37;;;8.60;99.90;;;;;;5043677;28;20466;-67
2022/10/09 02:10:31;;;;;;;7.93;7.13;;;8.60;99.90;;;;;;5047363;28;20454;-67
2022/10/09 02:12:59;;;;;;;8.87;7.13;;;8.50;99.90;;;;;;5041033;28;20805;-67
2022/10/09 02:15:30;;;;;;;7.50;6.43;;;8.50;99.90;;;;;;5042634;28;20447;-67
2022/10/09 02:18:12;;;;;;;7.80;7.10;;;8.50;99.90;;;;;;5038021;28;20467;-67
2022/10/09 02:20:44;;;;;;;10.53;6.87;;;8.50;99.90;;;;;;5044723;28;20477;-67
2022/10/09 02:23:12;;;;;;;8.73;7.40;;;8.50;99.90;;;;;;5052781;28;20441;-67
2022/10/09 02:25:38;;;;;;;10.43;6.70;;;8.50;99.90;;;;;;5039174;28;20445;-67
2022/10/09 02:28:04;;;;;;;7.30;6.53;;;8.50;99.90;;;;;;5039714;28;20522;-67
2022/10/09 02:30:42;;;;;;;8.43;7.60;;;8.50;99.90;;;;;;5057241;28;20447;-67
2022/10/09 02:33:08;;;;;;;6.63;6.10;;;8.50;99.90;;;;;;5045590;28;20548;-67
2022/10/09 02:35:34;;;;;;;9.80;7.27;;;8.50;99.90;;;;;;5042801;28;20535;-67
2022/10/09 02:38:00;;;;;;;11.90;6.73;;;8.50;99.90;;;;;;5042117;28;20278;-67
2022/10/09 02:40:25;;;;;;;8.37;6.83;;;8.40;99.90;;;;;;5042865;28;20452;-67
2022/10/09 02:42:51;;;;;;;8.50;7.70;;;8.30;99.90;;;;;;5045309;28;20193;-67
2022/10/09 02:45:16;;;;;;;8.83;7.30;;;8.20;99.90;;;;;;5055483;28;20605;-67
2022/10/09 02:47:42;;;;;;;7.70;6.40;;;8.20;99.90;;;;;;5056503;28;20255;-67
2022/10/09 02:50:08;;;;;;;7.07;6.40;;;8.20;99.90;;;;;;5047323;28;20816;-67
2022/10/09 02:52:33;;;;;;;12.43;7.17;;;8.20;99.90;;;;;;5056229;28;20212;-67
2022/10/09 02:54:59;;;;;;;8.57;6.10;;;8.20;99.90;;;;;;5055534;28;20555;-67
2022/10/09 02:57:24;;;;;;;7.23;6.53;;;8.10;99.90;;;;;;5054946;28;20259;-67
2022/10/09 02:59:50;;;;;;;7.87;7.07;;;8.10;99.90;;;;;;5061532;28;20184;-67
2022/10/09 03:02:15;;;;;;;16.10;7.83;;;8.10;99.90;;;;;;5051433;28;20553;-67
2022/10/09 03:04:41;;;;;;;7.53;6.70;;;8.00;99.90;;;;;;5049736;28;20189;-67
2022/10/09 03:07:06;;;;;;;7.40;6.67;;;8.10;99.90;;;;;;5052017;28;20213;-67
2022/10/09 03:09:32;;;;;;;8.33;7.63;;;8.10;99.90;;;;;;5060438;28;20231;-67
2022/10/09 03:11:57;;;;;;;8.93;6.83;;;8.10;99.90;;;;;;5054153;28;20531;-67
2022/10/09 03:14:23;;;;;;;7.67;6.07;;;8.10;99.90;;;;;;5053703;28;20174;-67
2022/10/09 03:16:48;;;;;;;7.13;6.13;;;8.10;99.90;;;;;;5045339;28;20214;-67
2022/10/09 03:19:14;;;;;;;9.53;7.27;;;8.00;99.90;;;;;;5044014;28;20193;-67
2022/10/09 03:21:39;;;;;;;10.63;7.03;;;8.00;99.90;;;;;;5037196;28;20577;-67
2022/10/09 03:24:05;;;;;;;7.70;6.60;;;8.00;99.90;;;;;;5042705;28;20184;-67
2022/10/09 03:26:30;;;;;;;8.70;6.30;;;8.00;99.90;;;;;;5039111;28;20231;-67
2022/10/09 03:28:56;;;;;;;7.43;6.73;;;8.00;99.90;;;;;;5038605;28;20191;-67
2022/10/09 03:31:24;;;;;;;10.53;7.27;;;8.00;99.90;;;;;;5057041;28;20182;-67
2022/10/09 03:33:50;;;;;;;11.00;6.83;;;7.90;99.90;;;;;;5050106;28;20218;-67
2022/10/09 03:36:15;;;;;;;6.53;6.07;;;7.90;99.90;;;;;;5056617;28;20465;-67
2022/10/09 03:38:41;;;;;;;7.87;6.97;;;7.90;99.90;;;;;;5047984;28;20209;-67
2022/10/09 03:41:06;;;;;;;12.20;6.20;;;7.90;99.90;;;;;;5045659;28;20182;-67
2022/10/09 03:43:34;;;;;;;8.03;6.07;;;7.80;99.90;;;;;;5039953;28;20182;-67
2022/10/09 03:46:04;;;;;;;6.60;6.00;;;7.80;99.90;;;;;;5055650;28;20182;-67
2022/10/09 03:48:29;;;;;;;8.83;6.50;;;7.80;99.90;;;;;;5052076;28;20461;-67
2022/10/09 03:50:55;;;;;;;7.37;6.37;;;7.80;99.90;;;;;;5050486;28;20443;-67
2022/10/09 03:53:21;;;;;;;7.47;5.67;;;7.80;99.90;;;;;;5062818;28;20189;-67
2022/10/09 03:55:46;;;;;;;15.23;6.97;;;7.80;99.90;;;;;;5054316;28;20677;-67
2022/10/09 03:58:12;;;;;;;6.50;5.90;;;7.70;99.90;;;;;;5056780;28;20214;-67
2022/10/09 04:00:37;;;;;;;7.17;6.00;;;7.70;99.90;;;;;;5062111;28;20561;-67
2022/10/09 04:03:03;;;;;;;8.13;7.13;;;7.80;99.90;;;;;;5066310;28;20226;-67
2022/10/09 04:05:31;;;;;;;5.93;5.33;;;7.80;99.90;;;;;;5056478;28;20180;-67
2022/10/09 04:07:56;;;;;;;8.43;6.10;;;7.80;99.90;;;;;;5050123;28;20569;-67
2022/10/09 04:10:22;;;;;;;6.47;5.90;;;7.70;99.90;;;;;;5053891;28;20453;-67
2022/10/09 04:12:47;;;;;;;6.40;5.80;;;7.80;99.90;;;;;;5042404;28;20192;-67
2022/10/09 04:15:13;;;;;;;7.90;7.10;;;7.70;99.90;;;;;;5054775;28;20189;-67
2022/10/09 04:17:38;;;;;;;9.00;6.90;;;7.70;99.90;;;;;;5046989;28;20304;-67
2022/10/09 04:20:04;;;;;;;7.27;6.40;;;7.60;99.90;;;;;;5055665;28;20189;-67
2022/10/09 04:22:30;;;;;;;9.00;6.23;;;7.60;99.90;;;;;;5046628;28;20235;-67
2022/10/09 04:24:55;;;;;;;11.87;5.87;;;7.60;99.90;;;;;;5050926;28;20228;-67
2022/10/09 04:27:21;;;;;;;6.93;6.17;;;7.70;99.90;;;;;;5049353;28;20712;-67
2022/10/09 04:29:46;;;;;;;7.20;5.63;;;7.70;99.90;;;;;;5046282;28;20204;-67
2022/10/09 04:32:12;;;;;;;6.97;6.00;;;7.70;99.90;;;;;;5041726;28;20566;-67
2022/10/09 04:34:37;;;;;;;7.23;6.27;;;7.70;99.90;;;;;;5051479;28;20215;-67
2022/10/09 04:37:03;;;;;;;16.33;10.90;;;7.70;99.90;;;;;;5050499;28;20261;-67
2022/10/09 04:39:28;;;;;;;8.37;7.40;;;7.60;99.90;;;;;;5053786;28;20180;-67
2022/10/09 04:41:54;;;;;;;9.93;5.43;;;7.60;99.90;;;;;;5050760;28;20544;-67
2022/10/09 04:44:19;;;;;;;9.80;5.67;;;7.60;99.90;;;;;;5057254;28;20235;-67
2022/10/09 04:46:45;;;;;;;8.20;6.13;;;7.60;99.90;;;;;;5062128;28;20258;-67
2022/10/09 04:49:12;;;;;;;7.70;5.37;;;7.50;99.90;;;;;;5061483;28;20181;-67
2022/10/09 04:51:37;;;;;;;8.73;5.83;;;7.50;99.90;;;;;;5057554;28;20181;-67
2022/10/09 04:54:03;;;;;;;8.23;5.00;;;7.50;99.90;;;;;;5062608;28;20440;-67
2022/10/09 04:56:29;;;;;;;6.93;6.20;;;7.50;99.90;;;;;;5055853;28;20201;-67
2022/10/09 04:58:54;;;;;;;8.23;6.00;;;7.50;99.90;;;;;;5043359;28;20206;-67
2022/10/09 05:01:23;;;;;;;8.10;5.43;;;7.40;99.90;;;;;;5039773;28;20265;-67
2022/10/09 05:03:49;;;;;;;9.50;6.23;;;7.40;99.90;;;;;;5036019;28;20181;-67
2022/10/09 05:06:15;;;;;;;10.93;6.27;;;7.40;99.90;;;;;;5042837;28;20447;-67
2022/10/09 05:08:41;;;;;;;9.27;5.00;;;7.30;99.90;;;;;;5044304;28;20447;-67
2022/10/09 05:11:10;;;;;;;8.63;6.00;;;7.40;99.90;;;;;;5046633;28;20536;-67
2022/10/09 05:13:39;;;;;;;7.60;5.73;;;7.20;99.90;;;;;;5045029;28;20264;-67
2022/10/09 05:16:08;;;;;;;6.50;5.37;;;7.10;99.90;;;;;;5043936;28;20793;-69
2022/10/09 05:18:34;;;;;;;10.20;6.47;;;7.10;99.90;;;;;;5048566;28;20474;-69
2022/10/09 05:21:03;;;;;;;6.70;6.10;;;7.10;99.90;;;;;;5042757;28;20949;-67
2022/10/09 05:23:29;;;;;;;8.30;6.47;;;7.20;99.90;;;;;;5053973;28;20443;-67
2022/10/09 05:26:00;;;;;;;13.50;7.10;;;7.10;99.90;;;;;;5050415;28;20440;-69
2022/10/09 05:28:26;;;;;;;8.63;6.07;;;7.20;99.90;;;;;;5055784;28;20206;-69
2022/10/09 05:30:52;;;;;;;7.90;6.00;;;7.20;99.90;;;;;;5036993;28;20448;-67
2022/10/09 05:33:17;;;;;;;6.73;5.87;;;7.20;99.90;;;;;;5053429;28;20497;-68
2022/10/09 05:35:51;;;;;;;5.73;4.70;;;7.20;99.90;;;;;;5049457;28;20188;-66
2022/10/09 05:38:16;;;;;;;8.43;5.50;;;7.10;99.90;;;;;;5051832;28;20610;-67
2022/10/09 05:40:53;;;;;;;8.70;6.50;;;7.10;99.90;;;;;;5052998;28;20510;-66
2022/10/09 05:43:19;;;;;;;6.90;5.70;;;7.00;99.90;;;;;;5053815;28;20215;-67
2022/10/09 05:45:44;;;;;;;7.60;6.17;;;7.00;99.90;;;;;;5052441;28;20462;-66
2022/10/09 05:48:10;;;;;;;6.13;5.30;;;7.00;99.90;;;;;;5059071;28;20206;-67
2022/10/09 05:50:35;;;;;;;14.37;8.63;;;7.00;99.90;;;;;;5058707;28;20188;-68
2022/10/09 05:53:01;;;;;;;11.70;8.53;;;7.00;99.90;;;;;;5055474;28;20245;-67
2022/10/09 05:55:27;;;;;;;12.50;7.63;;;7.00;99.90;;;;;;5049903;28;20187;-68
2022/10/09 05:57:52;;;;;;;12.20;8.00;;;7.00;99.90;;;;;;5055950;28;20624;-67
2022/10/09 06:00:18;;;;;;;7.87;6.57;;;7.00;99.90;;;;;;5052425;28;20573;-68
2022/10/09 06:02:44;;;;;;;12.10;7.07;;;7.00;99.90;;;;;;5043569;28;20276;-68
2022/10/09 06:05:10;;;;;;;8.73;6.90;;;7.10;99.90;;;;;;5047037;28;20196;-68
2022/10/09 06:07:35;;;;;;;7.70;6.87;;;7.10;99.90;;;;;;5051303;28;20207;-67
2022/10/09 06:10:01;;;;;;;6.90;6.20;;;7.10;99.90;;;;;;5055778;28;20445;-67
2022/10/09 06:12:27;;;;;;;11.40;6.30;;;7.10;99.90;;;;;;5046909;28;20186;-67
2022/10/09 06:14:52;;;;;;;9.60;7.17;;;7.10;99.90;;;;;;5048077;28;20243;-67
2022/10/09 06:17:18;;;;;;;13.07;8.87;;;7.10;99.90;;;;;;5052417;28;20568;-68
2022/10/09 06:19:43;;;;;;;9.00;8.17;;;7.20;99.90;;;;;;5061575;28;20189;-67
2022/10/09 06:22:08;;;;;;;8.73;7.10;;;7.30;99.90;;;;;;5053804;28;20260;-67
2022/10/09 06:24:34;;;;;;;10.80;6.80;;;7.40;99.90;;;;;;5056092;28;20196;-68
2022/10/09 06:26:59;;;;;;;8.10;6.50;;;7.60;99.90;;;;;;5056343;28;20231;-66
2022/10/09 06:29:25;;;;;;;7.40;6.07;;;7.90;99.90;;;;;;5056817;28;20234;-68
2022/10/09 06:31:51;;;;;;;7.83;6.37;;;8.10;99.90;;;;;;5057308;28;20670;-67
2022/10/09 06:34:16;;;;;;;9.33;6.27;;;8.40;99.90;;;;;;5054139;28;20220;-66
2022/10/09 06:36:42;;;;;;;8.80;6.50;;;8.50;99.90;;;;;;5054941;28;20210;-67
2022/10/09 06:39:09;;;;;;;7.73;6.17;;;8.80;99.90;;;;;;5058623;28;20174;-68
2022/10/09 06:41:35;;;;;;;8.03;6.97;;;8.90;99.90;;;;;;5054262;28;20211;-67
2022/10/09 06:44:05;;;;;;;7.47;6.87;;;9.20;99.90;;;;;;5060666;28;20458;-68
2022/10/09 06:46:34;;;;;;;8.07;7.37;;;9.30;99.90;;;;;;5059409;28;20190;-68
2022/10/09 06:49:01;;;;;;;10.30;6.80;;;9.50;99.90;;;;;;5056699;28;20456;-68
2022/10/09 06:51:28;;;;;;;12.67;11.37;;;9.70;99.90;;;;;;5057554;28;20457;-68
2022/10/09 06:53:55;;;;;;;7.23;6.53;;;9.80;99.90;;;;;;5060445;28;20474;-68
2022/10/09 06:56:23;;;;;;;7.63;6.30;;;9.90;99.90;;;;;;5056834;28;20435;-68
2022/10/09 06:58:49;;;;;;;7.70;6.33;;;10.00;99.90;;;;;;5057170;28;20467;-67
2022/10/09 07:01:18;;;;;;;7.30;6.50;;;10.20;99.90;;;;;;5060303;28;20450;-68
2022/10/09 07:03:47;;;;;;;7.43;6.77;;;10.40;99.90;;;;;;5060754;28;20539;-68
2022/10/09 07:06:18;;;;;;;7.63;6.80;;;10.40;99.90;;;;;;5060615;28;20773;-69
2022/10/09 07:08:49;;;;;;;8.07;7.27;;;10.40;99.90;;;;;;5056468;28;20444;-68
2022/10/09 07:11:20;;;;;;;8.50;7.63;;;10.50;99.90;;;;;;5058583;28;20586;-68
2022/10/09 07:13:46;;;;;;;7.33;6.60;;;10.60;99.90;;;;;;5061780;28;20439;-68
2022/10/09 07:16:12;;;;;;;7.30;6.60;;;10.90;99.90;;;;;;5059170;28;20450;-66
2022/10/09 07:18:38;;;;;;;9.90;7.00;;;11.10;99.90;;;;;;5059386;28;20974;-67
2022/10/09 07:21:06;;;;;;;7.03;6.43;;;11.30;99.90;;;;;;5059811;28;20977;-68
2022/10/09 07:23:33;;;;;;;7.03;6.43;;;11.60;99.90;;;;;;5059218;28;20444;-69
2022/10/09 07:26:00;;;;;;;11.93;7.40;;;11.60;99.90;;;;;;5062854;28;20514;-68
2022/10/09 07:28:27;;;;;;;8.60;7.80;;;11.70;99.90;;;;;;5043601;28;20831;-68
2022/10/09 07:30:53;;;;;;;9.00;7.60;;;11.50;99.90;;;;;;5059482;28;21008;-69
2022/10/09 07:33:18;;;;;;;13.50;8.67;;;11.60;99.90;;;;;;5061495;28;20442;-68
2022/10/09 07:35:55;;;;;;;9.07;7.67;;;11.60;99.90;;;;;;5059198;28;20212;-68
2022/10/09 07:38:21;;;;;;;9.10;6.53;;;11.70;99.90;;;;;;5061048;28;20701;-68
2022/10/09 07:40:46;;;;;;;7.40;6.70;;;11.60;99.90;;;;;;5061870;28;20444;-67
2022/10/09 07:43:12;;;;;;;10.27;6.83;;;11.80;99.90;;;;;;5061197;28;20194;-67
2022/10/09 07:45:37;;;;;;;6.87;6.17;;;12.10;99.90;;;;;;5057824;28;20898;-69
2022/10/09 07:48:03;;;;;;;6.53;5.40;;;12.50;99.90;;;;;;5065579;28;20232;-67
2022/10/09 07:50:28;;;;;;;6.33;5.57;;;12.70;99.90;;;;;;5058791;28;20213;-67
2022/10/09 07:52:54;;;;;;;5.80;5.17;;;13.10;99.90;;;;;;5061188;28;20193;-67
2022/10/09 07:55:19;;;;;;;6.60;6.00;;;13.30;99.90;;;;;;5064617;28;20226;-68
2022/10/09 07:57:45;;;;;;;7.53;5.47;;;13.40;99.90;;;;;;5064607;28;20208;-69
2022/10/09 08:00:11;;;;;;;5.57;5.00;;;13.80;99.90;;;;;;5054342;28;20721;-68
2022/10/09 08:02:36;;;;;;;6.43;5.40;;;14.00;99.90;;;;;;5067012;28;20185;-68
2022/10/09 08:05:02;;;;;;;6.70;4.83;;;14.30;99.90;;;;;;5060901;28;20201;-68
2022/10/09 08:07:28;;;;;;;5.53;5.10;;;14.70;99.90;;;;;;5058806;28;20690;-68
2022/10/09 08:09:53;;;;;;;6.07;4.93;;;15.20;99.90;;;;;;5064119;28;20322;-68
2022/10/09 08:12:19;;;;;;;6.03;4.50;;;15.30;99.90;;;;;;5061842;28;20247;-68
2022/10/09 08:14:47;;;;;;;9.10;4.20;;;15.50;99.90;;;;;;5051951;28;20208;-69
2022/10/09 08:17:13;;;;;;;7.00;4.10;;;15.70;99.90;;;;;;5060266;28;20209;-68
2022/10/09 08:19:39;;;;;;;5.43;5.03;;;16.40;99.90;;;;;;5055656;28;20937;-68
2022/10/09 08:22:04;;;;;;;6.30;3.90;;;16.90;99.90;;;;;;5056366;28;20437;-68
2022/10/09 08:24:30;;;;;;;5.57;4.37;;;17.40;99.90;;;;;;5045678;28;20216;-68
2022/10/09 08:26:55;;;;;;;4.77;4.43;;;18.10;99.90;;;;;;5048790;28;20212;-69
2022/10/09 08:29:21;;;;;;;6.33;4.90;;;18.60;99.90;;;;;;5057350;28;20185;-68
2022/10/09 08:31:46;;;;;;;5.23;4.77;;;18.80;99.90;;;;;;5064722;28;20582;-69
2022/10/09 08:34:12;;;;;;;7.83;4.47;;;18.70;99.90;;;;;;5048416;28;20234;-69
2022/10/09 08:36:38;;;;;;;3.97;3.57;;;19.30;99.90;;;;;;5060399;28;20197;-68
2022/10/09 08:39:04;;;;;;;4.60;4.20;;;19.70;98.60;;;;;;5053611;28;20202;-68
2022/10/09 08:41:48;;;;;;;6.03;3.27;;;20.20;97.10;;;;;;5062197;28;20661;-68
2022/10/09 08:44:21;;;;;;;4.20;3.90;;;20.50;95.60;;;;;;5060100;28;20242;-68
2022/10/09 08:46:56;;;;;;;7.50;4.37;;;21.00;94.70;;;;;;5055892;28;20989;-68
2022/10/09 08:49:48;;;;;;;8.87;4.00;;;21.60;93.20;;;;;;5058692;28;20434;-68
2022/10/09 08:52:34;;;;;;;6.13;3.90;;;21.90;92.10;;;;;;5062016;28;20441;-69
2022/10/09 08:55:11;;;;;;;6.47;4.90;;;22.30;91.10;;;;;;5059234;28;20431;-69
2022/10/09 08:57:37;;;;;;;3.93;3.53;;;23.00;88.70;;;;;;5063824;28;20540;-70
2022/10/09 09:00:15;;;;;;;6.20;3.80;;;23.30;86.90;;;;;;5061985;28;20479;-68
2022/10/09 09:02:52;;;;;;;5.27;4.53;;;23.50;83.90;;;;;;5034189;28;20520;-69
2022/10/09 09:05:36;;;;;;;6.00;4.30;;;23.20;83.20;;;;;;5059683;28;20811;-69
2022/10/09 09:08:15;;;;;;;3.90;3.43;;;23.70;81.00;;;;;;5060470;28;20454;-68
2022/10/09 09:11:10;;;;;;;4.43;4.00;;;23.90;79.30;;;;;;5059340;28;20435;-69
2022/10/09 09:13:47;;;;;;;4.13;3.73;;;23.60;79.80;;;;;;5049490;28;20444;-70
2022/10/09 09:16:39;;;;;;;4.00;3.53;;;23.80;77.90;;;;;;5062003;28;20569;-68
2022/10/09 09:19:23;;;;;;;3.80;3.27;;;24.20;74.60;;;;;;5054030;28;20472;-68
2022/10/09 09:21:51;;;;;;;5.20;3.20;;;24.40;73.60;;;;;;5052313;28;20464;-67
2022/10/09 09:24:25;;;;;;;5.13;4.30;;;24.50;72.90;;;;;;5052129;28;20463;-68
2022/10/09 09:26:54;;;;;;;8.73;3.53;;;24.90;72.90;;;;;;5063568;28;20550;-69
2022/10/09 09:29:22;;;;;;;6.73;3.67;;;25.00;70.80;;;;;;5054010;28;20500;-69
2022/10/09 09:31:52;;;;;;;4.07;3.47;;;24.90;71.40;;;;;;5055216;28;20960;-68
2022/10/09 09:34:34;;;;;;;4.57;3.27;;;25.60;68.20;;;;;;5057153;28;20516;-69
2022/10/09 09:37:00;;;;;;;4.00;3.60;;;26.30;66.30;;;;;;5059374;28;20463;-69
2022/10/09 09:39:28;;;;;;;3.63;3.33;;;27.00;63.90;;;;;;5063669;28;20790;-68
2022/10/09 09:42:11;;;;;;;4.80;2.73;;;27.10;59.00;;;;;;5061882;28;20443;-68
2022/10/09 09:44:41;;;;;;;4.40;2.93;;;26.70;59.70;;;;;;5055353;28;20467;-68
2022/10/09 09:47:19;;;;;;;3.00;2.80;;;27.40;57.90;;;;;;5057832;28;20463;-68
2022/10/09 09:49:59;;;;;;;3.60;2.90;;;27.70;55.70;;;;;;5059637;28;20537;-67
2022/10/09 09:52:33;;;;;;;5.00;2.90;;;27.40;55.60;;;;;;5049896;28;20445;-68
2022/10/09 09:54:59;;;;;;;2.20;2.00;;;28.00;53.70;;;;;;5058460;28;20448;-69
2022/10/09 09:57:33;;;;;;;3.23;2.47;;;27.80;52.00;;;;;;5063417;28;21056;-68
2022/10/09 10:00:17;;;;;;;4.87;3.20;;;28.00;52.60;;;;;;5060903;28;20685;-68
2022/10/09 10:02:43;;;;;;;2.67;2.40;;;28.20;51.20;;;;;;5056403;28;20440;-68
2022/10/09 10:05:22;;;;;;;3.87;2.40;;;28.30;50.60;;;;;;5055631;28;21093;-69
2022/10/09 10:07:50;;;;;;;5.13;2.63;;;28.30;50.30;;;;;;5059207;28;20196;-69
2022/10/09 10:10:20;;;;;;;7.50;3.10;;;29.00;51.30;;;;;;5060824;28;20450;-68
2022/10/09 10:12:50;;;;;;;3.27;2.50;;;29.10;51.10;;;;;;5055577;28;20443;-68
2022/10/09 10:15:22;;;;;;;3.37;2.23;;;29.60;52.90;;;;;;5056715;28;20542;-69
2022/10/09 10:17:53;;;;;;;2.70;2.50;;;29.60;51.70;;;;;;5063151;28;20473;-68
2022/10/09 10:20:19;;;;;;;2.50;2.30;;;29.30;50.40;;;;;;5058772;28;20444;-69
2022/10/09 10:22:54;;;;;;;2.30;2.10;;;29.40;50.70;;;;;;5066848;28;20426;-68
2022/10/09 10:25:32;;;;;;;3.00;2.63;;;29.40;50.40;;;;;;5056462;28;20188;-69
2022/10/09 10:28:14;;;;;;;2.57;2.37;;;29.60;49.00;;;;;;5042815;28;20581;-69
2022/10/09 10:30:41;;;;;;;2.30;2.00;;;30.00;49.30;;;;;;5050405;28;20442;-69
2022/10/09 10:33:12;;;;;;;3.20;2.37;;;30.90;54.60;;;;;;5061786;28;20994;-68
2022/10/09 10:35:42;;;;;;;2.50;2.30;;;31.80;52.10;;;;;;5053467;28;20447;-68
2022/10/09 10:38:29;;;;;;;3.03;2.13;;;32.20;48.80;;;;;;5059799;28;20463;-68
2022/10/09 10:41:04;;;;;;;2.33;2.07;;;32.70;47.40;;;;;;5062133;28;20442;-69
2022/10/09 10:43:44;;;;;;;6.23;2.60;;;32.70;44.90;;;;;;5052399;28;20451;-69
2022/10/09 10:46:27;;;;;;;3.70;2.20;;;32.30;44.80;;;;;;5055216;28;20444;-70
2022/10/09 10:48:52;;;;;;;5.63;2.27;;;32.10;45.30;;;;;;5060774;28;20443;-69
2022/10/09 10:51:36;;;;;;;2.50;2.30;;;31.40;44.90;;;;;;5058282;28;20522;-70
2022/10/09 10:54:13;;;;;;;2.77;2.30;;;32.00;45.10;;;;;;5054131;28;20234;-69
2022/10/09 10:56:50;;;;;;;2.67;2.33;;;32.00;44.10;;;;;;5062462;28;20534;-69
2022/10/09 10:59:28;;;;;;;3.43;2.43;;;32.60;44.10;;;;;;5058586;28;20486;-68
2022/10/09 11:02:13;;;;;;;3.23;2.37;;;33.40;42.50;;;;;;5057112;28;20474;-69
2022/10/09 11:04:49;;;;;;;2.10;1.90;;;33.00;41.10;;;;;;5048093;28;20446;-69
2022/10/09 11:07:48;;;;;;;3.07;2.60;;;32.20;42.40;;;;;;5060247;28;20489;-69
2022/10/09 11:10:26;;;;;;;2.20;1.97;;;32.20;42.50;;;;;;5056841;28;20457;-69
2022/10/09 11:13:02;;;;;;;5.70;2.20;;;33.30;41.80;;;;;;5067089;28;20426;-68
2022/10/09 11:15:40;;;;;;;2.27;2.07;;;33.50;41.10;;;;;;5054452;28;21141;-69
2022/10/09 11:18:17;;;;;;;4.27;2.03;;;30.90;41.90;;;;;;5053955;28;21007;-68
2022/10/09 11:21:01;;;;;;;2.73;2.30;;;29.90;43.50;;;;;;5063243;28;20484;-69
2022/10/09 11:24:04;;;;;;;4.30;2.20;;;31.30;42.50;;;;;;5051007;28;20804;-68
2022/10/09 11:26:37;;;;;;;2.13;2.00;;;31.10;41.60;;;;;;5049613;28;20453;-68
2022/10/09 11:29:17;;;;;;;2.53;2.33;;;30.80;42.10;;;;;;5058934;28;20976;-69
2022/10/09 11:32:00;;;;;;;3.03;2.77;;;31.10;42.20;;;;;;5054313;28;20440;-68
2022/10/09 11:34:31;;;;;;;2.50;2.30;;;30.80;42.40;;;;;;5047605;28;20466;-68
2022/10/09 11:36:59;;;;;;;3.70;3.30;;;30.70;42.50;;;;;;5062303;28;20458;-68
2022/10/09 11:39:29;;;;;;;3.10;2.23;;;31.60;42.40;;;;;;5048339;28;20439;-69
2022/10/09 11:41:56;;;;;;;2.30;2.10;;;31.60;41.60;;;;;;5057280;28;20443;-68
2022/10/09 11:45:04;;;;;;;3.83;2.30;;;31.70;41.60;;;;;;5059287;28;20435;-69
2022/10/09 11:47:49;;;;;;;2.10;2.00;;;31.00;41.70;;;;;;5051221;28;20470;-69
2022/10/09 11:50:26;;;;;;;4.60;2.10;;;32.50;41.20;;;;;;5059454;28;20448;-69
2022/10/09 11:53:24;;;;;;;3.87;2.53;;;32.70;40.80;;;;;;5060270;28;20445;-68
2022/10/09 11:56:17;;;;;;;2.33;2.00;;;30.30;41.50;;;;;;5054009;28;20454;-68
2022/10/09 11:58:53;;;;;;;2.30;2.03;;;29.40;43.40;;;;;;5056757;28;20462;-68
2022/10/09 12:01:27;;;;;;;2.37;1.90;;;30.20;43.10;;;;;;5057889;28;20486;-68
2022/10/09 12:04:08;;;;;;;2.90;2.37;;;30.20;42.10;;;;;;5048815;28;20514;-68
2022/10/09 12:06:52;;;;;;;2.67;2.20;;;30.40;42.30;;;;;;5058595;28;20488;-69
2022/10/09 12:09:36;;;;;;;1.97;1.80;;;31.90;41.20;;;;;;5058950;28;20489;-69
2022/10/09 12:12:06;;;;;;;1.93;1.83;;;32.70;40.30;;;;;;5054994;28;20431;-68
2022/10/09 12:14:35;;;;;;;2.33;1.60;;;32.60;40.10;;;;;;5059886;28;20434;-67
2022/10/09 12:17:01;;;;;;;2.20;1.80;;;30.90;41.10;;;;;;5056935;28;20491;-68
2022/10/09 12:19:34;;;;;;;2.13;2.00;;;31.00;41.40;;;;;;5066342;28;20448;-68
2022/10/09 12:22:06;;;;;;;4.53;2.03;;;31.90;41.00;;;;;;5055741;28;20926;-68
2022/10/09 12:24:41;;;;;;;2.23;1.90;;;32.20;40.10;;;;;;5065489;28;20442;-68
2022/10/09 12:27:07;;;;;;;2.20;2.00;;;32.20;39.90;;;;;;5046345;28;20467;-68
2022/10/09 12:29:55;;;;;;;3.07;1.80;;;30.60;40.70;;;;;;5060368;28;20982;-68
2022/10/09 12:32:42;;;;;;;2.50;2.30;;;31.60;40.60;;;;;;5048581;28;21289;-68
2022/10/09 12:35:36;;;;;;;1.93;1.73;;;30.80;40.20;;;;;;5051900;28;20449;-68
2022/10/09 12:38:15;;;;;;;4.40;2.10;;;31.40;40.50;;;;;;5058461;28;20471;-68
2022/10/09 12:40:45;;;;;;;3.33;1.93;;;30.00;41.30;;;;;;5055581;28;20949;-69
2022/10/09 12:43:16;;;;;;;2.57;1.93;;;29.00;41.90;;;;;;5054737;28;20974;-69
2022/10/09 12:45:44;;;;;;;3.90;2.07;;;29.80;42.60;;;;;;5065246;28;20447;-68
2022/10/09 12:48:12;;;;;;;4.17;1.70;;;30.50;41.20;;;;;;5052944;28;20479;-68
2022/10/09 12:50:38;;;;;;;2.60;2.30;;;30.70;41.10;;;;;;5064051;28;20956;-68
2022/10/09 12:53:11;;;;;;;2.40;2.07;;;30.50;40.80;;;;;;5064220;28;20441;-69
2022/10/09 12:55:43;;;;;;;2.50;2.30;;;31.20;41.00;;;;;;5060725;28;20451;-68
2022/10/09 12:58:20;;;;;;;2.80;1.80;;;31.70;40.20;;;;;;5055512;28;20518;-68
2022/10/09 13:00:49;;;;;;;2.60;2.17;;;32.60;41.00;;;;;;5061630;28;20435;-68
2022/10/09 13:03:31;;;;;;;3.70;2.20;;;33.80;39.50;;;;;;5062099;28;20423;-69
2022/10/09 13:05:57;;;;;;;3.20;2.50;;;32.70;39.10;;;;;;5060623;28;20502;-68